Time;durP1;ratioP1;P1;durP2;ratioP2;P2;SDS_P1;SDS_P2;PMS_P1;PMS_P2;Temp;Humidity;BMP_temperature;BMP_pressure;BME280_temperature;BME280_humidity;BME280_pressure;Samples;Min_cycle;Max_cycle;Signal;HPM_P1;HPM_P2
2023/06/23 00:01:05;;;;;;;7.82;2.72;;;;;;;;;;4878398;29;20037;-70
2023/06/23 00:03:31;;;;;;;3.17;2.22;;;;;;;;;;4878212;29;20040;-70
2023/06/23 00:06:00;;;;;;;3.85;2.47;;;;;;;;;;4878358;29;20029;-70
2023/06/23 00:08:26;;;;;;;3.10;2.60;;;;;;;;;;4878151;29;20035;-69
2023/06/23 00:10:52;;;;;;;5.07;2.55;;;;;;;;;;4877963;29;20051;-70
2023/06/23 00:13:19;;;;;;;4.60;2.55;;;;;;;;;;4878079;29;20470;-70
2023/06/23 00:15:46;;;;;;;2.75;2.35;;;;;;;;;;4878024;29;20024;-70
2023/06/23 00:18:12;;;;;;;6.78;2.63;;;;;;;;;;4878287;29;20033;-70
2023/06/23 00:20:38;;;;;;;4.07;2.60;;;;;;;;;;4878055;29;20502;-70
2023/06/23 00:23:06;;;;;;;4.95;2.80;;;;;;;;;;4877972;29;20100;-70
2023/06/23 00:25:32;;;;;;;5.18;2.67;;;;;;;;;;4877769;29;20397;-70
2023/06/23 00:27:59;;;;;;;5.35;2.83;;;;;;;;;;4877849;29;20025;-70
2023/06/23 00:30:26;;;;;;;4.13;2.70;;;;;;;;;;4877866;29;20092;-70
2023/06/23 00:32:52;;;;;;;4.93;2.50;;;;;;;;;;4878181;29;20021;-70
2023/06/23 00:35:19;;;;;;;3.72;2.88;;;;;;;;;;4878155;29;20033;-70
2023/06/23 00:37:45;;;;;;;7.18;2.65;;;;;;;;;;4877974;29;20030;-70
2023/06/23 00:40:11;;;;;;;5.35;3.00;;;;;;;;;;4877881;29;20059;-70
2023/06/23 00:42:44;;;;;;;5.70;2.88;;;;;;;;;;4877692;29;20029;-70
2023/06/23 00:45:11;;;;;;;6.43;3.10;;;;;;;;;;4878067;29;20017;-70
2023/06/23 00:47:37;;;;;;;3.35;3.03;;;;;;;;;;4877835;29;20029;-70
2023/06/23 00:50:05;;;;;;;5.53;3.00;;;;;;;;;;4878206;29;20035;-69
2023/06/23 00:52:32;;;;;;;5.90;2.90;;;;;;;;;;4877646;29;20084;-70
2023/06/23 00:54:59;;;;;;;6.70;3.05;;;;;;;;;;4862659;29;20036;-70
2023/06/23 00:57:28;;;;;;;4.38;3.08;;;;;;;;;;4881230;29;20029;-70
2023/06/23 00:59:55;;;;;;;3.65;2.85;;;;;;;;;;4880784;29;20513;-70
2023/06/23 01:02:21;;;;;;;6.78;3.13;;;;;;;;;;4881151;29;20025;-70
2023/06/23 01:04:48;;;;;;;3.75;3.03;;;;;;;;;;4880982;29;20471;-70
2023/06/23 01:07:38;;;;;;;4.20;2.72;;;;;;;;;;4880607;29;20546;-70
2023/06/23 01:10:05;;;;;;;;;;;;;;;;;;4881400;29;20036;-70
2023/06/23 01:12:39;;;;;;;6.43;2.95;;;;;;;;;;4880860;29;20383;-70
2023/06/23 01:15:08;;;;;;;3.80;2.80;;;;;;;;;;4864113;29;20040;-70
2023/06/23 01:17:44;;;;;;;3.78;3.20;;;;;;;;;;4880990;29;20021;-70
2023/06/23 01:20:21;;;;;;;5.25;3.05;;;;;;;;;;4880612;29;20043;-69
2023/06/23 01:23:02;;;;;;;4.03;2.90;;;;;;;;;;4880268;29;20097;-69
2023/06/23 01:25:46;;;;;;;4.63;2.88;;;;;;;;;;4880645;29;20029;-70
2023/06/23 01:28:18;;;;;;;4.25;3.00;;;;;;;;;;4880532;29;20037;-70
2023/06/23 01:30:47;;;;;;;3.97;3.10;;;;;;;;;;4880622;29;20032;-70
2023/06/23 01:33:21;;;;;;;5.65;3.25;;;;;;;;;;4880748;29;20029;-70
2023/06/23 01:35:50;;;;;;;4.43;3.10;;;;;;;;;;4880249;29;20035;-68
2023/06/23 01:38:28;;;;;;;9.05;3.30;;;;;;;;;;4880730;29;20040;-70
2023/06/23 01:40:56;;;;;;;3.92;3.10;;;;;;;;;;4880475;29;20040;-70
2023/06/23 01:43:29;;;;;;;7.47;2.90;;;;;;;;;;4880337;29;20033;-69
2023/06/23 01:45:58;;;;;;;3.85;2.90;;;;;;;;;;4880117;29;20025;-70
2023/06/23 01:48:25;;;;;;;4.13;2.88;;;;;;;;;;4880249;29;20031;-70
2023/06/23 01:50:52;;;;;;;3.58;2.50;;;;;;;;;;4880110;29;20040;-70
2023/06/23 01:53:20;;;;;;;5.25;3.10;;;;;;;;;;4880280;29;20068;-70
2023/06/23 01:55:47;;;;;;;5.85;3.00;;;;;;;;;;4880099;29;20032;-70
2023/06/23 01:58:14;;;;;;;4.90;3.00;;;;;;;;;;4880078;29;20033;-70
2023/06/23 02:00:41;;;;;;;4.72;3.30;;;;;;;;;;4880040;29;20037;-69
2023/06/23 02:03:08;;;;;;;4.32;2.60;;;;;;;;;;4879914;29;20069;-69
2023/06/23 02:05:36;;;;;;;6.75;3.17;;;;;;;;;;4879244;29;20521;-69
2023/06/23 02:08:02;;;;;;;4.03;2.90;;;;;;;;;;4879820;29;20031;-70
2023/06/23 02:10:29;;;;;;;3.72;3.33;;;;;;;;;;4879770;29;20029;-69
2023/06/23 02:12:56;;;;;;;7.20;3.05;;;;;;;;;;4879868;29;20043;-70
2023/06/23 02:15:23;;;;;;;4.65;2.80;;;;;;;;;;4879720;29;20528;-70
2023/06/23 02:17:50;;;;;;;3.90;2.97;;;;;;;;;;4863081;29;20045;-70
2023/06/23 02:20:17;;;;;;;4.03;2.67;;;;;;;;;;4879302;29;20029;-69
2023/06/23 02:22:45;;;;;;;6.25;3.03;;;;;;;;;;4879521;29;20526;-70
2023/06/23 02:25:12;;;;;;;5.60;3.00;;;;;;;;;;4879578;29;20056;-70
2023/06/23 02:27:38;;;;;;;5.65;3.03;;;;;;;;;;4879442;29;20490;-69
2023/06/23 02:30:05;;;;;;;6.75;3.20;;;;;;;;;;4879514;29;20413;-69
2023/06/23 02:32:32;;;;;;;5.45;3.05;;;;;;;;;;4879372;29;20442;-70
2023/06/23 02:34:58;;;;;;;7.25;2.70;;;;;;;;;;4879205;29;20483;-69
2023/06/23 02:37:26;;;;;;;3.80;3.00;;;;;;;;;;4879431;29;20044;-69
2023/06/23 02:39:54;;;;;;;4.47;2.80;;;;;;;;;;4879445;29;20029;-70
2023/06/23 02:42:21;;;;;;;5.78;3.15;;;;;;;;;;4879537;29;20028;-70
2023/06/23 02:44:52;;;;;;;5.03;2.88;;;;;;;;;;4879298;29;20021;-70
2023/06/23 02:47:19;;;;;;;3.63;3.00;;;;;;;;;;4879296;29;20394;-70
2023/06/23 02:49:47;;;;;;;5.43;2.90;;;;;;;;;;4878889;29;21006;-70
2023/06/23 02:52:14;;;;;;;3.65;2.65;;;;;;;;;;4879162;29;20025;-70
2023/06/23 02:54:44;;;;;;;3.83;2.70;;;;;;;;;;4879072;29;20048;-69
2023/06/23 02:57:14;;;;;;;6.75;2.90;;;;;;;;;;4879001;29;20379;-69
2023/06/23 02:59:44;;;;;;;3.50;2.65;;;;;;;;;;4878930;29;20512;-70
2023/06/23 03:02:13;;;;;;;7.43;2.97;;;;;;;;;;4878930;29;20040;-69
2023/06/23 03:04:41;;;;;;;3.72;2.60;;;;;;;;;;4878512;29;20031;-70
2023/06/23 03:07:10;;;;;;;12.45;3.00;;;;;;;;;;4878726;29;20451;-70
2023/06/23 03:09:37;;;;;;;10.48;2.85;;;;;;;;;;4878894;29;20483;-70
2023/06/23 03:12:04;;;;;;;4.30;2.85;;;;;;;;;;4878898;29;20486;-69
2023/06/23 03:14:30;;;;;;;4.57;2.60;;;;;;;;;;4878639;29;20043;-69
2023/06/23 03:17:06;;;;;;;5.57;2.92;;;;;;;;;;4878491;29;20084;-69
2023/06/23 03:19:52;;;;;;;4.85;3.00;;;;;;;;;;4878503;29;20040;-70
2023/06/23 03:22:22;;;;;;;3.65;2.65;;;;;;;;;;4861992;29;20049;-69
2023/06/23 03:24:51;;;;;;;6.60;2.90;;;;;;;;;;4878648;29;20047;-70
2023/06/23 03:27:19;;;;;;;4.68;2.60;;;;;;;;;;4884575;29;20314;-70
2023/06/23 03:29:48;;;;;;;5.88;2.97;;;;;;;;;;4916320;29;20028;-70
2023/06/23 03:32:16;;;;;;;4.57;2.75;;;;;;;;;;4901654;29;20025;-70
2023/06/23 03:34:48;;;;;;;3.88;2.85;;;;;;;;;;4897260;29;20025;-69
2023/06/23 03:37:15;;;;;;;5.00;2.63;;;;;;;;;;4897346;29;20385;-70
2023/06/23 03:39:43;;;;;;;6.07;2.78;;;;;;;;;;4897116;29;20539;-69
2023/06/23 03:42:10;;;;;;;3.95;2.85;;;;;;;;;;4897380;29;20048;-70
2023/06/23 03:44:39;;;;;;;5.00;2.75;;;;;;;;;;4897236;29;20087;-70
2023/06/23 03:47:10;;;;;;;3.92;3.05;;;;;;;;;;4896749;29;20024;-68
2023/06/23 03:49:40;;;;;;;3.35;3.00;;;;;;;;;;4897110;29;20434;-70
2023/06/23 03:52:08;;;;;;;3.95;2.70;;;;;;;;;;4897246;29;20036;-70
2023/06/23 03:54:35;;;;;;;3.92;2.72;;;;;;;;;;4897057;29;20024;-70
2023/06/23 03:57:03;;;;;;;3.33;2.50;;;;;;;;;;4897068;29;20036;-70
2023/06/23 03:59:29;;;;;;;3.63;2.60;;;;;;;;;;4896871;29;20040;-70
2023/06/23 04:01:56;;;;;;;3.35;2.53;;;;;;;;;;4896404;29;20043;-70
2023/06/23 04:04:24;;;;;;;4.90;2.72;;;;;;;;;;4896910;29;20417;-70
2023/06/23 04:06:52;;;;;;;3.58;2.80;;;;;;;;;;4896776;29;20020;-70
2023/06/23 04:09:20;;;;;;;4.22;2.88;;;;;;;;;;4896896;29;20393;-70
2023/06/23 04:11:47;;;;;;;4.28;3.00;;;;;;;;;;4896764;29;20080;-69
2023/06/23 04:14:14;;;;;;;8.48;3.08;;;;;;;;;;4896851;29;20502;-70
2023/06/23 04:16:40;;;;;;;5.63;3.20;;;;;;;;;;4896326;29;20447;-70
2023/06/23 04:19:08;;;;;;;9.35;2.75;;;;;;;;;;4896801;29;20047;-70
2023/06/23 04:21:37;;;;;;;3.25;2.88;;;;;;;;;;4896698;29;20107;-69
2023/06/23 04:24:04;;;;;;;5.25;2.83;;;;;;;;;;4896526;29;20055;-70
2023/06/23 04:26:30;;;;;;;7.25;3.25;;;;;;;;;;4891183;29;20096;-69
2023/06/23 04:28:59;;;;;;;3.22;2.92;;;;;;;;;;4861535;29;20024;-69
2023/06/23 04:31:27;;;;;;;4.35;2.72;;;;;;;;;;4881266;29;20035;-69
2023/06/23 04:33:53;;;;;;;5.15;2.83;;;;;;;;;;4881512;29;20033;-70
2023/06/23 04:36:20;;;;;;;7.38;3.10;;;;;;;;;;4881536;29;20482;-70
2023/06/23 04:38:58;;;;;;;4.50;3.20;;;;;;;;;;4881485;29;20550;-69
2023/06/23 04:41:26;;;;;;;6.47;3.40;;;;;;;;;;4881287;29;20033;-69
2023/06/23 04:43:54;;;;;;;3.58;2.80;;;;;;;;;;4881726;29;20036;-69
2023/06/23 04:46:22;;;;;;;8.23;3.05;;;;;;;;;;4880971;29;20037;-70
2023/06/23 04:48:57;;;;;;;4.03;3.00;;;;;;;;;;4881486;29;20041;-70
2023/06/23 04:51:27;;;;;;;4.18;2.80;;;;;;;;;;4881244;29;20039;-69
2023/06/23 04:53:57;;;;;;;5.72;3.13;;;;;;;;;;4881285;29;20509;-70
2023/06/23 04:56:28;;;;;;;6.40;3.20;;;;;;;;;;4881395;29;20033;-70
2023/06/23 04:58:56;;;;;;;4.28;2.90;;;;;;;;;;4864439;29;20025;-70
2023/06/23 05:01:23;;;;;;;6.78;3.72;;;;;;;;;;4881028;29;20494;-70
2023/06/23 05:03:50;;;;;;;10.35;3.17;;;;;;;;;;4881082;29;20498;-70
2023/06/23 05:06:18;;;;;;;4.82;3.08;;;;;;;;;;4881138;29;20521;-70
2023/06/23 05:08:46;;;;;;;5.43;3.08;;;;;;;;;;4881026;29;20036;-69
2023/06/23 05:11:14;;;;;;;6.45;2.83;;;;;;;;;;4881149;29;20037;-69
2023/06/23 05:13:41;;;;;;;4.97;3.35;;;;;;;;;;4880773;29;20028;-70
2023/06/23 05:16:10;;;;;;;6.47;3.20;;;;;;;;;;4880832;29;20025;-69
2023/06/23 05:18:37;;;;;;;4.28;2.88;;;;;;;;;;4881060;29;20047;-70
2023/06/23 05:21:04;;;;;;;5.07;2.92;;;;;;;;;;4880717;29;20073;-69
2023/06/23 05:23:31;;;;;;;4.88;2.97;;;;;;;;;;4880636;29;20399;-69
2023/06/23 05:25:58;;;;;;;4.15;3.00;;;;;;;;;;4881563;29;20025;-70
2023/06/23 05:28:26;;;;;;;6.30;2.83;;;;;;;;;;4882484;29;20047;-69
2023/06/23 05:30:56;;;;;;;4.30;2.72;;;;;;;;;;4899301;29;20027;-69
2023/06/23 05:33:24;;;;;;;5.82;2.70;;;;;;;;;;4899421;29;20035;-69
2023/06/23 05:35:53;;;;;;;4.05;2.50;;;;;;;;;;4899234;29;20028;-70
2023/06/23 05:38:20;;;;;;;4.95;2.55;;;;;;;;;;4899205;29;20084;-69
2023/06/23 05:40:46;;;;;;;4.10;2.72;;;;;;;;;;4899041;29;20050;-70
2023/06/23 05:43:12;;;;;;;5.38;3.05;;;;;;;;;;4898879;29;20033;-70
2023/06/23 05:45:39;;;;;;;4.15;2.78;;;;;;;;;;4899279;29;20045;-70
2023/06/23 05:48:09;;;;;;;6.00;2.97;;;;;;;;;;4899038;29;20130;-70
2023/06/23 05:50:37;;;;;;;4.82;2.78;;;;;;;;;;4898978;29;20031;-70
2023/06/23 05:53:08;;;;;;;6.07;3.03;;;;;;;;;;4899100;29;20036;-69
2023/06/23 05:55:40;;;;;;;8.93;2.78;;;;;;;;;;4898825;29;20029;-70
2023/06/23 05:58:08;;;;;;;7.95;2.90;;;;;;;;;;4898139;29;20036;-70
2023/06/23 06:00:55;;;;;;;6.55;2.95;;;;;;;;;;4898533;29;20051;-69
2023/06/23 06:03:23;;;;;;;5.13;2.83;;;;;;;;;;4913253;29;20036;-70
2023/06/23 06:05:53;;;;;;;4.15;2.92;;;;;;;;;;4917150;29;20020;-70
2023/06/23 06:08:20;;;;;;;5.03;2.90;;;;;;;;;;4917255;29;20123;-69
2023/06/23 06:10:47;;;;;;;6.22;2.88;;;;;;;;;;4896344;29;20028;-71
2023/06/23 06:13:14;;;;;;;7.68;2.97;;;;;;;;;;4897496;29;20035;-71
2023/06/23 06:15:41;;;;;;;3.85;2.40;;;;;;;;;;4898012;29;20367;-71
2023/06/23 06:18:11;;;;;;;5.07;2.80;;;;;;;;;;4897775;29;20032;-71
2023/06/23 06:20:39;;;;;;;3.00;2.47;;;;;;;;;;4897952;29;20045;-70
2023/06/23 06:23:06;;;;;;;3.75;2.20;;;;;;;;;;4897496;29;20044;-70
2023/06/23 06:25:34;;;;;;;3.67;2.65;;;;;;;;;;4897726;29;20051;-71
2023/06/23 06:28:01;;;;;;;6.78;2.58;;;;;;;;;;4897270;29;20035;-71
2023/06/23 06:30:28;;;;;;;5.32;2.80;;;;;;;;;;4897661;29;20024;-71
2023/06/23 06:32:54;;;;;;;4.25;2.92;;;;;;;;;;4897519;29;20027;-71
2023/06/23 06:35:22;;;;;;;3.13;2.63;;;;;;;;;;4897048;29;20035;-70
2023/06/23 06:37:50;;;;;;;8.57;2.72;;;;;;;;;;4895207;29;20012;-70
2023/06/23 06:40:22;;;;;;;6.47;2.75;;;;;;;;;;4887310;29;20033;-70
2023/06/23 06:42:48;;;;;;;4.32;3.08;;;;;;;;;;4886570;29;20025;-70
2023/06/23 06:45:14;;;;;;;4.60;2.90;;;;;;;;;;4884692;29;20029;-69
2023/06/23 06:47:43;;;;;;;4.63;2.92;;;;;;;;;;4872679;29;20055;-69
2023/06/23 06:50:11;;;;;;;5.88;2.90;;;;;;;;;;4895622;29;20025;-71
2023/06/23 06:52:38;;;;;;;5.40;2.60;;;;;;;;;;4897263;29;20429;-71
2023/06/23 06:55:05;;;;;;;4.50;2.72;;;;;;;;;;4895808;29;20028;-66
2023/06/23 06:57:35;;;;;;;4.47;2.45;;;;;;;;;;4896868;29;20056;-71
2023/06/23 07:00:04;;;;;;;3.28;2.80;;;;;;;;;;4897066;29;20477;-71
2023/06/23 07:02:32;;;;;;;5.68;3.00;;;;;;;;;;4896320;29;20028;-71
2023/06/23 07:05:00;;;;;;;3.88;2.92;;;;;;;;;;4895344;29;20066;-71
2023/06/23 07:07:26;;;;;;;4.07;2.88;;;;;;;;;;4896283;29;20028;-71
2023/06/23 07:09:52;;;;;;;5.95;3.08;;;;;;;;;;4896177;29;21335;-72
2023/06/23 07:12:19;;;;;;;4.43;3.47;;;;;;;;;;4896223;29;20032;-70
2023/06/23 07:14:45;;;;;;;6.97;3.05;;;;;;;;;;4894058;29;20405;-72
2023/06/23 07:17:11;;;;;;;3.25;2.88;;;;;;;;;;4876905;29;20513;-72
2023/06/23 07:19:38;;;;;;;5.80;3.28;;;;;;;;;;4889276;29;20028;-72
2023/06/23 07:22:05;;;;;;;5.90;2.97;;;;;;;;;;4895698;29;20040;-73
2023/06/23 07:24:31;;;;;;;6.78;2.90;;;;;;;;;;4882327;29;20044;-72
2023/06/23 07:26:58;;;;;;;5.00;2.85;;;;;;;;;;4892202;29;20395;-72
2023/06/23 07:29:24;;;;;;;4.53;2.92;;;;;;;;;;4889812;29;20029;-72
2023/06/23 07:31:50;;;;;;;3.60;2.80;;;;;;;;;;4886585;29;20036;-71
2023/06/23 07:34:17;;;;;;;3.47;2.70;;;;;;;;;;4895625;29;20033;-71
2023/06/23 07:36:43;;;;;;;4.53;2.80;;;;;;;;;;4887397;29;20031;-71
2023/06/23 07:39:10;;;;;;;3.00;2.67;;;;;;;;;;4876851;29;20044;-71
2023/06/23 07:41:37;;;;;;;4.43;3.15;;;;;;;;;;4882527;29;20040;-73
2023/06/23 07:44:03;;;;;;;4.05;3.20;;;;;;;;;;4863439;29;20029;-73
2023/06/23 07:46:30;;;;;;;4.13;2.80;;;;;;;;;;4879627;29;20078;-72
2023/06/23 07:48:56;;;;;;;5.10;2.58;;;;;;;;;;4882389;29;20032;-72
2023/06/23 07:51:22;;;;;;;4.72;2.70;;;;;;;;;;4881996;29;20051;-72
2023/06/23 07:53:49;;;;;;;3.22;2.60;;;;;;;;;;4878793;29;20028;-72
2023/06/23 07:56:15;;;;;;;3.78;2.75;;;;;;;;;;4880170;29;20021;-72
2023/06/23 07:58:41;;;;;;;3.30;3.00;;;;;;;;;;4866320;29;20058;-73
2023/06/23 08:01:08;;;;;;;4.35;2.40;;;;;;;;;;4881164;29;20035;-71
2023/06/23 08:03:34;;;;;;;2.78;2.58;;;;;;;;;;4881653;29;20037;-71
2023/06/23 08:06:00;;;;;;;2.63;2.42;;;;;;;;;;4886475;29;20460;-71
2023/06/23 08:08:27;;;;;;;3.17;2.53;;;;;;;;;;4894899;29;20577;-71
2023/06/23 08:10:53;;;;;;;5.50;2.85;;;;;;;;;;4896859;29;20027;-72
2023/06/23 08:13:19;;;;;;;5.45;2.78;;;;;;;;;;4897904;29;20031;-74
2023/06/23 08:15:46;;;;;;;4.40;2.67;;;;;;;;;;4897675;29;20401;-71
2023/06/23 08:18:13;;;;;;;3.25;2.78;;;;;;;;;;4898698;29;20017;-73
2023/06/23 08:20:39;;;;;;;3.50;2.38;;;;;;;;;;4897383;29;20039;-72
2023/06/23 08:23:06;;;;;;;3.42;2.53;;;;;;;;;;4898601;29;20037;-74
2023/06/23 08:25:32;;;;;;;4.07;2.72;;;;;;;;;;4897048;29;20021;-73
2023/06/23 08:27:58;;;;;;;5.43;2.70;;;;;;;;;;4897781;29;20066;-73
2023/06/23 08:30:30;;;;;;;3.97;2.60;;;;;;;;;;4895521;29;20513;-72
2023/06/23 08:32:57;;;;;;;2.78;2.13;;;;;;;;;;4897591;29;20032;-75
2023/06/23 08:35:24;;;;;;;4.40;2.40;;;;;;;;;;4893588;29;20039;-73
2023/06/23 08:37:51;;;;;;;4.43;2.70;;;;;;;;;;4891908;29;20036;-71
2023/06/23 08:40:17;;;;;;;5.47;2.30;;;;;;;;;;4889301;29;20028;-69
2023/06/23 08:42:44;;;;;;;5.35;2.30;;;;;;;;;;4891503;29;20029;-72
2023/06/23 08:45:12;;;;;;;7.22;2.50;;;;;;;;;;4892359;29;20013;-71
2023/06/23 08:47:51;;;;;;;3.33;2.28;;;;;;;;;;4893765;29;20124;-71
2023/06/23 08:50:17;;;;;;;5.70;2.63;;;;;;;;;;4889872;29;20040;-70
2023/06/23 08:52:44;;;;;;;3.60;2.70;;;;;;;;;;4890426;29;20095;-70
2023/06/23 08:55:11;;;;;;;2.60;2.10;;;;;;;;;;4900205;29;20090;-70
2023/06/23 08:57:38;;;;;;;2.67;2.47;;;;;;;;;;4897825;29;20041;-70
2023/06/23 09:00:06;;;;;;;3.67;2.38;;;;;;;;;;4903681;29;20020;-71
2023/06/23 09:02:32;;;;;;;3.63;2.67;;;;;;;;;;4894134;29;20028;-71
2023/06/23 09:04:59;;;;;;;2.92;2.28;;;;;;;;;;4892284;29;20023;-71
2023/06/23 09:07:26;;;;;;;2.60;2.40;;;;;;;;;;4888577;29;20021;-71
2023/06/23 09:09:53;;;;;;;4.50;2.42;;;;;;;;;;4891766;29;20021;-71
2023/06/23 09:12:24;;;;;;;4.55;2.60;;;;;;;;;;4892229;29;20032;-73
2023/06/23 09:14:51;;;;;;;2.85;2.55;;;;;;;;;;4892055;29;20074;-73
2023/06/23 09:17:18;;;;;;;3.70;2.55;;;;;;;;;;4878186;29;20044;-73
2023/06/23 09:19:49;;;;;;;4.25;2.63;;;;;;;;;;4882526;29;20024;-73
2023/06/23 09:22:18;;;;;;;3.97;2.67;;;;;;;;;;4905318;29;20032;-72
2023/06/23 09:24:45;;;;;;;3.30;2.70;;;;;;;;;;4901236;29;20039;-71
2023/06/23 09:27:11;;;;;;;2.60;2.40;;;;;;;;;;4904329;29;20052;-72
2023/06/23 09:29:38;;;;;;;4.43;2.60;;;;;;;;;;4894783;29;20407;-72
2023/06/23 09:32:04;;;;;;;3.38;2.85;;;;;;;;;;4895884;29;20631;-72
2023/06/23 09:34:34;;;;;;;4.10;2.80;;;;;;;;;;4890666;29;20085;-72
2023/06/23 09:37:00;;;;;;;;;;;;;;;;;;4892313;29;20793;-68
2023/06/23 09:39:26;;;;;;;;;;;;;;;;;;4895799;29;19917;-68
2023/06/23 09:41:52;;;;;;;;;;;;;;;;;;4887789;29;19915;-69
2023/06/23 09:44:19;;;;;;;;;;;;;;;;;;4892656;29;19911;-69
2023/06/23 09:46:45;;;;;;;;;;;;;;;;;;4887613;29;19907;-69
2023/06/23 09:49:11;;;;;;;;;;;;;;;;;;4889007;29;19911;-69
2023/06/23 09:51:37;;;;;;;;;;;;;;;;;;4888313;29;19908;-69
2023/06/23 09:54:03;;;;;;;;;;;;;;;;;;4873118;29;19911;-69
2023/06/23 09:56:30;;;;;;;;;;;;;;;;;;4888033;29;19912;-69
2023/06/23 09:58:56;;;;;;;;;;;;;;;;;;4892113;29;19911;-69
2023/06/23 10:01:22;;;;;;;;;;;;;;;;;;4890253;29;19978;-70
2023/06/23 10:03:48;;;;;;;;;;;;;;;;;;4888725;29;20650;-70
2023/06/23 10:06:15;;;;;;;;;;;;;;;;;;4888652;29;19923;-69
2023/06/23 10:08:41;;;;;;;;;;;;;;;;;;4887272;29;20304;-69
2023/06/23 10:11:07;;;;;;;;;;;;;;;;;;4889115;29;19962;-69
2023/06/23 10:13:33;;;;;;;;;;;;;;;;;;4888380;29;19921;-69
2023/06/23 10:16:00;;;;;;;;;;;;;;;;;;4889694;29;19919;-69
2023/06/23 10:18:26;;;;;;;;;;;;;;;;;;4886503;29;19908;-69
2023/06/23 10:20:52;;;;;;;;;;;;;;;;;;4888399;29;19915;-69
2023/06/23 10:23:18;;;;;;;;;;;;;;;;;;4888729;29;20382;-70
2023/06/23 10:25:45;;;;;;;;;;;;;;;;;;4887729;29;19911;-69
2023/06/23 10:28:11;;;;;;;;;;;;;;;;;;4891713;29;19907;-69
2023/06/23 10:30:37;;;;;;;;;;;;;;;;;;4887685;29;19911;-69
2023/06/23 10:33:03;;;;;;;;;;;;;;;;;;4888694;29;20452;-69
2023/06/23 10:35:30;;;;;;;;;;;;;;;;;;4887432;29;20444;-69
2023/06/23 10:37:56;;;;;;;;;;;;;;;;;;4888137;29;19914;-69
2023/06/23 10:40:24;;;;;;;;;;;;;;;;;;4889163;29;19915;-69
2023/06/23 10:42:50;;;;;;;;;;;;;;;;;;4887547;29;19956;-69
2023/06/23 10:45:16;;;;;;;;;;;;;;;;;;4887690;29;20324;-69
2023/06/23 10:47:43;;;;;;;;;;;;;;;;;;4888574;29;20291;-69
2023/06/23 10:50:09;;;;;;;;;;;;;;;;;;4887173;29;19915;-70
2023/06/23 10:52:35;;;;;;;;;;;;;;;;;;4887886;29;19914;-70
2023/06/23 10:55:01;;;;;;;;;;;;;;;;;;4891062;29;19912;-70
2023/06/23 10:57:28;;;;;;;;;;;;;;;;;;4887046;29;19911;-70
2023/06/23 10:59:54;;;;;;;;;;;;;;;;;;4891125;29;19914;-70
2023/06/23 11:02:22;;;;;;;;;;;;;;;;;;4886526;29;19931;-70
2023/06/23 11:04:49;;;;;;;;;;;;;;;;;;4887202;29;19930;-69
2023/06/23 11:07:15;;;;;;;;;;;;;;;;;;4887957;29;19911;-69
2023/06/23 11:09:44;;;;;;;;;;;;;;;;;;4888482;29;19914;-69
2023/06/23 11:12:11;;;;;;;;;;;;;;;;;;4886847;29;20304;-69
2023/06/23 11:14:37;;;;;;;;;;;;;;;;;;4886807;29;19971;-69
2023/06/23 11:17:03;;;;;;;;;;;;;;;;;;4888213;29;19911;-69
2023/06/23 11:19:29;;;;;;;;;;;;;;;;;;4886690;29;19908;-69
2023/06/23 11:21:55;;;;;;;;;;;;;;;;;;4887213;29;19921;-69
2023/06/23 11:24:22;;;;;;;;;;;;;;;;;;4886967;29;19926;-70
2023/06/23 11:26:48;;;;;;;;;;;;;;;;;;4890643;29;19918;-69
2023/06/23 11:29:14;;;;;;;;;;;;;;;;;;4887070;29;19908;-69
2023/06/23 11:31:40;;;;;;;;;;;;;;;;;;4890950;29;19922;-69
2023/06/23 11:34:06;;;;;;;;;;;;;;;;;;4885708;29;20377;-69
2023/06/23 11:36:33;;;;;;;;;;;;;;;;;;4887291;29;19929;-69
2023/06/23 11:39:00;;;;;;;;;;;;;;;;;;4887687;29;19923;-70
2023/06/23 11:41:26;;;;;;;;;;;;;;;;;;4887496;29;19924;-69
2023/06/23 11:43:53;;;;;;;;;;;;;;;;;;4886228;29;19927;-69
2023/06/23 11:46:19;;;;;;;;;;;;;;;;;;4889885;29;19911;-68
2023/06/23 11:48:45;;;;;;;;;;;;;;;;;;4882648;29;19912;-70
2023/06/23 11:51:11;;;;;;;;;;;;;;;;;;4891376;29;19962;-74
2023/06/23 11:53:40;;;;;;;;;;;;;;;;;;4900053;29;19914;-70
2023/06/23 11:56:06;;;;;;;;;;;;;;;;;;4900487;29;19930;-74
2023/06/23 11:58:32;;;;;;;;;;;;;;;;;;4897535;29;19959;-73
2023/06/23 12:00:58;;;;;;;;;;;;;;;;;;4898965;29;19922;-81
2023/06/23 12:03:25;;;;;;;;;;;;;;;;;;4898242;29;19930;-76
2023/06/23 12:05:51;;;;;;;;;;;;;;;;;;4899804;29;19918;-78
2023/06/23 12:08:17;;;;;;;;;;;;;;;;;;4882711;29;19922;-75
2023/06/23 12:10:44;;;;;;;;;;;;;;;;;;4899482;29;19963;-73
2023/06/23 12:13:10;;;;;;;;;;;;;;;;;;4898665;29;19915;-77
2023/06/23 12:15:36;;;;;;;;;;;;;;;;;;4900129;29;20384;-74
2023/06/23 12:18:02;;;;;;;;;;;;;;;;;;4903826;29;19915;-77
2023/06/23 12:20:28;;;;;;;;;;;;;;;;;;4901347;29;20292;-75
2023/06/23 12:22:54;;;;;;;;;;;;;;;;;;4903035;29;19971;-73
2023/06/23 12:25:21;;;;;;;;;;;;;;;;;;4887230;29;19926;-71
2023/06/23 12:27:47;;;;;;;;;;;;;;;;;;4893607;29;19907;-79
2023/06/23 12:30:13;;;;;;;;;;;;;;;;;;4888457;29;19912;-74
2023/06/23 12:32:39;;;;;;;;;;;;;;;;;;4889219;29;19921;-81
2023/06/23 12:35:05;;;;;;;;;;;;;;;;;;4877622;29;19914;-71
2023/06/23 12:37:32;;;;;;;;;;;;;;;;;;4877895;29;19908;-74
2023/06/23 12:39:58;;;;;;;;;;;;;;;;;;4896119;29;20272;-72
2023/06/23 12:42:24;;;;;;;;;;;;;;;;;;4895717;29;19919;-78
2023/06/23 12:44:50;;;;;;;;;;;;;;;;;;4896056;29;19921;-74
2023/06/23 12:47:17;;;;;;;;;;;;;;;;;;4896492;29;19914;-75
2023/06/23 12:49:43;;;;;;;;;;;;;;;;;;4889775;29;20280;-74
2023/06/23 12:52:11;;;;;;;;;;;;;;;;;;4866634;29;19911;-73
2023/06/23 12:54:37;;;;;;;;;;;;;;;;;;4892375;29;19914;-73
2023/06/23 12:57:03;;;;;;;;;;;;;;;;;;4887617;29;19938;-71
2023/06/23 12:59:30;;;;;;;;;;;;;;;;;;4899300;29;20373;-72
2023/06/23 13:01:56;;;;;;;;;;;;;;;;;;4902269;29;19925;-72
2023/06/23 13:04:22;;;;;;;;;;;;;;;;;;4899500;29;19915;-75
2023/06/23 13:06:49;;;;;;;;;;;;;;;;;;4899804;29;19915;-73
2023/06/23 13:09:15;;;;;;;;;;;;;;;;;;4892760;29;19911;-72
2023/06/23 13:11:41;;;;;;;;;;;;;;;;;;4898171;29;19922;-70
2023/06/23 13:14:07;;;;;;;;;;;;;;;;;;4899240;29;20365;-72
2023/06/23 13:16:33;;;;;;;;;;;;;;;;;;4899127;29;19907;-72
2023/06/23 13:19:00;;;;;;;;;;;;;;;;;;4899234;29;19912;-71
2023/06/23 13:21:26;;;;;;;;;;;;;;;;;;4900241;29;19937;-70
2023/06/23 13:23:52;;;;;;;;;;;;;;;;;;4892595;29;19919;-68
2023/06/23 13:26:18;;;;;;;;;;;;;;;;;;4892392;29;20440;-67
2023/06/23 13:28:44;;;;;;;;;;;;;;;;;;4899272;29;19907;-69
2023/06/23 13:31:10;;;;;;;;;;;;;;;;;;4882601;29;19919;-67
2023/06/23 13:33:37;;;;;;;;;;;;;;;;;;4898995;29;20524;-70
2023/06/23 13:36:03;;;;;;;;;;;;;;;;;;4898843;29;19918;-69
2023/06/23 13:38:29;;;;;;;;;;;;;;;;;;4873439;29;20269;-78
2023/06/23 13:40:56;;;;;;;;;;;;;;;;;;4880826;29;19920;-71
2023/06/23 13:43:22;;;;;;;;;;;;;;;;;;4894297;29;19933;-75
2023/06/23 13:45:49;;;;;;;;;;;;;;;;;;4898503;29;20388;-72
2023/06/23 13:48:17;;;;;;;;;;;;;;;;;;4898760;29;19907;-69
2023/06/23 13:50:44;;;;;;;;;;;;;;;;;;4898258;29;19915;-77
2023/06/23 13:53:10;;;;;;;;;;;;;;;;;;4881059;29;20281;-76
2023/06/23 13:55:36;;;;;;;;;;;;;;;;;;4895708;29;19914;-71
2023/06/23 13:58:03;;;;;;;;;;;;;;;;;;4881574;29;20369;-71
2023/06/23 14:00:31;;;;;;;;;;;;;;;;;;4883038;29;20361;-75
2023/06/23 14:02:58;;;;;;;;;;;;;;;;;;4898730;29;19911;-75
2023/06/23 14:05:24;;;;;;;;;;;;;;;;;;4881636;29;19918;-73
2023/06/23 14:07:50;;;;;;;;;;;;;;;;;;4897907;29;19911;-74
2023/06/23 14:10:17;;;;;;;;;;;;;;;;;;4881605;29;19922;-76
2023/06/23 14:12:43;;;;;;;;;;;;;;;;;;4877724;29;19918;-77
2023/06/23 14:15:09;;;;;;;;;;;;;;;;;;4879401;29;20321;-72
2023/06/23 14:17:36;;;;;;;;;;;;;;;;;;4880337;29;19914;-69
2023/06/23 14:20:02;;;;;;;;;;;;;;;;;;4883575;29;19919;-70
2023/06/23 14:22:28;;;;;;;;;;;;;;;;;;4873726;29;19926;-72
2023/06/23 14:24:54;;;;;;;;;;;;;;;;;;4874603;29;19920;-72
2023/06/23 14:27:21;;;;;;;;;;;;;;;;;;4873736;29;19919;-73
2023/06/23 14:29:47;;;;;;;;;;;;;;;;;;4873716;29;19920;-71
2023/06/23 14:32:13;;;;;;;;;;;;;;;;;;4874807;29;19926;-69
2023/06/23 14:34:39;;;;;;;;;;;;;;;;;;4877337;29;19973;-69
2023/06/23 14:37:05;;;;;;;;;;;;;;;;;;4878324;29;19918;-71
2023/06/23 14:39:32;;;;;;;;;;;;;;;;;;4878674;29;19912;-70
2023/06/23 14:41:58;;;;;;;;;;;;;;;;;;4860936;29;19930;-70
2023/06/23 14:44:24;;;;;;;;;;;;;;;;;;4878708;29;19912;-70
2023/06/23 14:46:50;;;;;;;;;;;;;;;;;;4878050;29;19908;-68
2023/06/23 14:49:17;;;;;;;;;;;;;;;;;;4877072;29;19918;-69
2023/06/23 14:51:43;;;;;;;;;;;;;;;;;;4878370;29;19931;-70
2023/06/23 14:54:09;;;;;;;;;;;;;;;;;;4877450;29;19911;-70
2023/06/23 14:56:37;;;;;;;;;;;;;;;;;;4877258;29;19918;-69
2023/06/23 14:59:03;;;;;;;;;;;;;;;;;;4878226;29;19918;-69
2023/06/23 15:01:30;;;;;;;;;;;;;;;;;;4876952;29;19923;-69
2023/06/23 15:03:56;;;;;;;;;;;;;;;;;;4878394;29;19918;-71
2023/06/23 15:06:23;;;;;;;;;;;;;;;;;;4877825;29;19912;-70
2023/06/23 15:08:49;;;;;;;;;;;;;;;;;;4878317;29;19915;-70
2023/06/23 15:11:15;;;;;;;;;;;;;;;;;;4878674;29;19918;-71
2023/06/23 15:13:41;;;;;;;;;;;;;;;;;;4871078;29;19911;-72
2023/06/23 15:16:07;;;;;;;;;;;;;;;;;;4877291;29;19922;-70
2023/06/23 15:18:34;;;;;;;;;;;;;;;;;;4877959;29;19967;-71
2023/06/23 15:21:00;;;;;;;;;;;;;;;;;;4878870;29;19942;-72
2023/06/23 15:23:26;;;;;;;;;;;;;;;;;;4888837;29;20308;-71
2023/06/23 15:25:52;;;;;;;;;;;;;;;;;;4897189;29;19918;-72
2023/06/23 15:28:18;;;;;;;;;;;;;;;;;;4897400;29;19912;-72